Descanso, CA

4:07 AM PDT on May 27, 2015 (GMT -0700)
MesoWest | | Change Station
CLOSE
Current Station
Personal Weather Station
Location: Descanso, CA
Elevation: 3706 ft
Nearby Weather Stations

Elev 3706 ft 32.94 °N, 116.64 °W | Updated 47 minutes ago

Overcast
Overcast
51 °F
Feels Like 51 °F
N
5
Wind Variable Wind from East
Gusts 7.0 mph

Today
High -- | Low -- °F
--% Chance of Precip.
Yesterday
High -- | Low -- °F
Precip. -- in
5:40 AM 7:46 PM
Waxing Gibbous, 66% visible
Pressure 29.87 in
Visibility -9999.0 miles
Clouds
Dew Point 41 °F
Humidity 69%
Rainfall in
Snow Depth Not available.
UV Not available.
Pollen 5.60 out of 12
Air Quality Not available.
Flu Activity Sporadic
METAR KCZZ 271052Z AUTO 01004KT 12/10 A2994 RMK AO1 SLP113 T01170100

More Conditions Fewer Conditions

Pressure 29.87 in
Visibility -9999.0 miles
Clouds
Dew Point 41 °F
Humidity 69%
Rainfall in
Snow Depth Not available.
UV Not available.
Pollen 5.60 out of 12
Air Quality Not available.
Flu Activity Sporadic
METAR KCZZ 271052Z AUTO 01004KT 12/10 A2994 RMK AO1 SLP113 T01170100

More Conditions Fewer Conditions

10-Day Weather Forecast

Almanac

Astronomy

May. 27, 2015 Rise Set
Actual Time
Civil Twilight
Nautical Twilight
Astronomical Twilight
Moon
Length of Visible Light
Length of Day
Tomorrow will be .
, % of the Moon is Illuminated

Today's Extremes

State Highs State Lows

Community

WunderPhotos

Upload Photos

1,824,637 photos uploaded!

WunderBlogs® & News

Nearby

Air Quality

  Air Quality AQ Index Pollutant
Not available.

Snow Depth

Station Depth Elevation

Earthquake Activity

City Distance Mag. Time & Date
Minimum magnitude displayed is 2.5.

Coastal Water Temperatures

Place Temperature

Stations

Nearby Weather Stations

Station Location Temp. Windchill Dew Point Humidity Wind Precip. Elev Updated Type